Buoy 41609

sailwx.info

Track history (hours):
 
Tides and Currents Weather Stations Pressure Air Temp Water Temp Dewpoint Dewpoint Depression Visibility Wind Speed Wind Dir Waves Ship Positions

Drifting buoy 41609

Last reported at 2015-May-27 21:00 UTC. Time now 2015-May-27 22:05 UTC.
Position N 44°32' W 043°01'.

Date/timePositionNaut miles runAvg speedWind from/ knotsBaromVisibWave heightAir tempDewpointWater temp
2015-May-27 21:00N 44°32' W 043°01'2 0.3
2015-May-27 15:00N 44°30' W 043°00'3 0.3
2015-May-27 07:00N 44°32' W 042°58'1 0.5
2015-May-27 04:00N 44°31' W 042°58'4 0.3
2015-May-26 16:00N 44°33' W 042°53'0 0.1
2015-May-26 15:00N 44°33' W 042°53'1 0.8
2015-May-26 14:00N 44°34' W 042°54'1 0.1
2015-May-26 08:00N 44°33' W 042°54'0 0.5
2015-May-26 07:00N 44°33' W 042°53'1 0.5
2015-May-26 04:00N 44°33' W 042°51'1 0.1
2015-May-25 23:00N 44°33' W 042°50'1 0.1
2015-May-25 18:00N 44°32' W 042°50'0 0.4
2015-May-25 17:00N 44°32' W 042°50'5 0.7
2015-May-25 10:00N 44°31' W 042°43'1 0.9
2015-May-25 09:00N 44°32' W 042°42'0 0.3
2015-May-25 08:00N 44°32' W 042°42'5 0.4
2015-May-24 20:00N 44°32' W 042°34'1 0.7
2015-May-24 19:00N 44°33' W 042°33'2 0.1
2015-May-24 04:00N 44°32' W 042°30'0 0.0
2015-May-23 22:00N 44°32' W 042°30'1 0.8
2015-May-23 21:00N 44°32' W 042°30'0 0.0
2015-May-23 20:00N 44°32' W 042°30'2 0.3
2015-May-23 13:00N 44°30' W 042°29'1 0.3
2015-May-23 08:00N 44°29' W 042°30'0 0.3
2015-May-23 07:00N 44°28' W 042°31'0 0.1
2015-May-23 06:00N 44°28' W 042°31'0 0.1
2015-May-23 03:00N 44°28' W 042°31'1 0.3
2015-May-23 00:00N 44°29' W 042°31'2 0.4
2015-May-22 19:00N 44°28' W 042°34'0 0.5
2015-May-22 18:00N 44°27' W 042°34'1 0.6
2015-May-22 16:00N 44°27' W 042°36'2 0.3
2015-May-22 09:00N 44°26' W 042°39'2 0.8
2015-May-22 07:00N 44°26' W 042°41'2 1.0
2015-May-22 05:00N 44°26' W 042°44'6 0.5
2015-May-21 16:00N 44°25' W 042°52'1 1.2
2015-May-21 15:00N 44°25' W 042°54'1 0.4
2015-May-21 13:00N 44°25' W 042°55'4 3.6
2015-May-21 12:00N 44°25' W 042°60'0 0.1
2015-May-21 09:00N 44°25' W 043°00'3 1.0
2015-May-21 06:00N 44°23' W 043°04'2 0.3
2015-May-21 00:00N 44°23' W 043°06'0 0.2
2015-May-20 23:00N 44°23' W 043°06'4 0.7
2015-May-20 18:00N 44°22' W 043°11'0 0.0
2015-May-20 17:00N 44°22' W 043°11'5 0.7
2015-May-20 09:00N 44°19' W 043°17'14 1.1
2015-May-19 20:00N 44°11' W 043°33'0 0.0
2015-May-19 19:00N 44°11' W 043°33'0 0.0
2015-May-19 18:00N 44°11' W 043°33'9 1.6
2015-May-19 12:00N 44°05' W 043°43'0 0.0
2015-May-19 11:00N 44°05' W 043°43'0 0.2
2015-May-19 09:00N 44°04' W 043°43'13 3.3
2015-May-19 05:00N 43°55' W 043°56'0 0.0
2015-May-19 04:00N 43°55' W 043°56'2 0.5
2015-May-19 00:00N 43°54' W 043°59'1 0.5
2015-May-18 23:00N 43°54' W 043°59'4 1.8
2015-May-18 21:00N 43°51' W 044°02'1 0.7
2015-May-18 20:00N 43°51' W 044°03'1 0.9
2015-May-18 19:00N 43°51' W 044°04'4 3.6
2015-May-18 18:00N 43°48' W 044°07'0 0.0
2015-May-18 17:00N 43°48' W 044°07'0 0.0
2015-May-18 16:00N 43°48' W 044°07'5 5.4
2015-May-18 15:00N 43°43' W 044°12'2 0.4
2015-May-18 11:00N 43°42' W 044°13'2 2.3
2015-May-18 10:00N 43°40' W 044°15'0 0.4
2015-May-18 09:00N 43°40' W 044°15'2 2.1
2015-May-18 08:00N 43°38' W 044°16'2 1.6
2015-May-18 07:00N 43°37' W 044°17'2 1.8
2015-May-18 06:00N 43°35' W 044°18'5 4.5
2015-May-18 05:00N 43°31' W 044°20'0 0.0
2015-May-18 04:00N 43°31' W 044°20'0 0.0
2015-May-18 01:00N 43°31' W 044°20'1 1.3
2015-May-18 00:00N 43°29' W 044°20'1 1.4
2015-May-17 23:00N 43°28' W 044°21'0 0.0
2015-May-17 22:00N 43°28' W 044°21'  
Track history (hours):
 
Tides and Currents Weather Stations Pressure Air Temp Water Temp Dewpoint Dewpoint Depression Visibility Wind Speed Wind Dir Waves Ship Positions

Drifting buoy 41609

Last reported at 2015-May-27 21:00 UTC. Time now 2015-May-27 22:05 UTC.
Position N 44°32' W 043°01'.

Date/timePositionNaut miles runAvg speedWind from/ knotsBaromVisibWave heightAir tempDewpointWater temp
2015-May-27 21:00N 44°32' W 043°01'2 0.3
2015-May-27 15:00N 44°30' W 043°00'3 0.3
2015-May-27 07:00N 44°32' W 042°58'1 0.5
2015-May-27 04:00N 44°31' W 042°58'4 0.3
2015-May-26 16:00N 44°33' W 042°53'0 0.1
2015-May-26 15:00N 44°33' W 042°53'1 0.8
2015-May-26 14:00N 44°34' W 042°54'1 0.1
2015-May-26 08:00N 44°33' W 042°54'0 0.5
2015-May-26 07:00N 44°33' W 042°53'1 0.5
2015-May-26 04:00N 44°33' W 042°51'1 0.1
2015-May-25 23:00N 44°33' W 042°50'1 0.1
2015-May-25 18:00N 44°32' W 042°50'0 0.4
2015-May-25 17:00N 44°32' W 042°50'5 0.7
2015-May-25 10:00N 44°31' W 042°43'1 0.9
2015-May-25 09:00N 44°32' W 042°42'0 0.3
2015-May-25 08:00N 44°32' W 042°42'5 0.4
2015-May-24 20:00N 44°32' W 042°34'1 0.7
2015-May-24 19:00N 44°33' W 042°33'2 0.1
2015-May-24 04:00N 44°32' W 042°30'0 0.0
2015-May-23 22:00N 44°32' W 042°30'1 0.8
2015-May-23 21:00N 44°32' W 042°30'0 0.0
2015-May-23 20:00N 44°32' W 042°30'2 0.3
2015-May-23 13:00N 44°30' W 042°29'1 0.3
2015-May-23 08:00N 44°29' W 042°30'0 0.3
2015-May-23 07:00N 44°28' W 042°31'0 0.1
2015-May-23 06:00N 44°28' W 042°31'0 0.1
2015-May-23 03:00N 44°28' W 042°31'1 0.3
2015-May-23 00:00N 44°29' W 042°31'2 0.4
2015-May-22 19:00N 44°28' W 042°34'0 0.5
2015-May-22 18:00N 44°27' W 042°34'1 0.6
2015-May-22 16:00N 44°27' W 042°36'2 0.3
2015-May-22 09:00N 44°26' W 042°39'2 0.8
2015-May-22 07:00N 44°26' W 042°41'2 1.0
2015-May-22 05:00N 44°26' W 042°44'6 0.5
2015-May-21 16:00N 44°25' W 042°52'1 1.2
2015-May-21 15:00N 44°25' W 042°54'1 0.4
2015-May-21 13:00N 44°25' W 042°55'4 3.6
2015-May-21 12:00N 44°25' W 042°60'0 0.1
2015-May-21 09:00N 44°25' W 043°00'3 1.0
2015-May-21 06:00N 44°23' W 043°04'2 0.3
2015-May-21 00:00N 44°23' W 043°06'0 0.2
2015-May-20 23:00N 44°23' W 043°06'4 0.7
2015-May-20 18:00N 44°22' W 043°11'0 0.0
2015-May-20 17:00N 44°22' W 043°11'5 0.7
2015-May-20 09:00N 44°19' W 043°17'14 1.1
2015-May-19 20:00N 44°11' W 043°33'0 0.0
2015-May-19 19:00N 44°11' W 043°33'0 0.0
2015-May-19 18:00N 44°11' W 043°33'9 1.6
2015-May-19 12:00N 44°05' W 043°43'0 0.0
2015-May-19 11:00N 44°05' W 043°43'0 0.2
2015-May-19 09:00N 44°04' W 043°43'13 3.3
2015-May-19 05:00N 43°55' W 043°56'0 0.0
2015-May-19 04:00N 43°55' W 043°56'2 0.5
2015-May-19 00:00N 43°54' W 043°59'1 0.5
2015-May-18 23:00N 43°54' W 043°59'4 1.8
2015-May-18 21:00N 43°51' W 044°02'1 0.7
2015-May-18 20:00N 43°51' W 044°03'1 0.9
2015-May-18 19:00N 43°51' W 044°04'4 3.6
2015-May-18 18:00N 43°48' W 044°07'0 0.0
2015-May-18 17:00N 43°48' W 044°07'0 0.0
2015-May-18 16:00N 43°48' W 044°07'5 5.4
2015-May-18 15:00N 43°43' W 044°12'2 0.4
2015-May-18 11:00N 43°42' W 044°13'2 2.3
2015-May-18 10:00N 43°40' W 044°15'0 0.4
2015-May-18 09:00N 43°40' W 044°15'2 2.1
2015-May-18 08:00N 43°38' W 044°16'2 1.6
2015-May-18 07:00N 43°37' W 044°17'2 1.8
2015-May-18 06:00N 43°35' W 044°18'5 4.5
2015-May-18 05:00N 43°31' W 044°20'0 0.0
2015-May-18 04:00N 43°31' W 044°20'0 0.0
2015-May-18 01:00N 43°31' W 044°20'1 1.3
2015-May-18 00:00N 43°29' W 044°20'1 1.4
2015-May-17 23:00N 43°28' W 044°21'0 0.0
2015-May-17 22:00N 43°28' W 044°21'  

Dump ship's entire track history